createdAt,value
2023-04-09T00:01:18.101Z,100.00
2023-04-09T00:03:44.649Z,100.00
2023-04-09T00:06:11.612Z,100.00
2023-04-09T00:08:38.006Z,100.00
2023-04-09T00:11:04.798Z,100.00
2023-04-09T00:13:39.201Z,100.00
2023-04-09T00:16:07.454Z,100.00
2023-04-09T00:18:33.998Z,100.00
2023-04-09T00:21:00.556Z,100.00
2023-04-09T00:23:26.997Z,100.00
2023-04-09T00:25:53.455Z,100.00
2023-04-09T00:28:20.061Z,100.00
2023-04-09T00:30:46.522Z,100.00
2023-04-09T00:33:12.984Z,100.00
2023-04-09T00:35:39.414Z,100.00
2023-04-09T00:38:05.857Z,100.00
2023-04-09T00:40:32.564Z,100.00
2023-04-09T00:42:58.994Z,100.00
2023-04-09T00:45:25.475Z,100.00
2023-04-09T00:47:52.233Z,100.00
2023-04-09T00:50:19.663Z,100.00
2023-04-09T00:52:46.078Z,100.00
2023-04-09T00:55:13.457Z,100.00
2023-04-09T00:57:39.872Z,100.00
2023-04-09T01:00:07.789Z,100.00
2023-04-09T01:02:34.693Z,100.00
2023-04-09T01:05:01.500Z,100.00
2023-04-09T01:07:54.244Z,100.00
2023-04-09T01:10:42.412Z,100.00
2023-04-09T01:13:12.535Z,100.00
2023-04-09T01:15:52.158Z,100.00
2023-04-09T01:18:29.468Z,100.00
2023-04-09T01:21:05.374Z,100.00
2023-04-09T01:24:05.651Z,100.00
2023-04-09T01:26:55.495Z,100.00
2023-04-09T01:29:23.932Z,100.00
2023-04-09T01:31:51.099Z,100.00
2023-04-09T01:34:19.379Z,100.00
2023-04-09T01:36:53.154Z,100.00
2023-04-09T01:39:19.975Z,100.00
2023-04-09T01:41:47.045Z,100.00
2023-04-09T01:44:14.616Z,100.00
2023-04-09T01:46:41.799Z,100.00
2023-04-09T01:49:10.884Z,100.00
2023-04-09T01:51:38.071Z,100.00
2023-04-09T01:54:05.063Z,100.00
2023-04-09T01:56:48.207Z,100.00
2023-04-09T01:59:14.958Z,100.00
2023-04-09T02:01:53.320Z,100.00
2023-04-09T02:04:40.399Z,100.00
2023-04-09T02:07:11.021Z,100.00
2023-04-09T02:09:40.569Z,100.00
2023-04-09T02:12:12.178Z,100.00
2023-04-09T02:14:40.124Z,100.00
2023-04-09T02:17:06.681Z,100.00
2023-04-09T02:19:47.713Z,100.00
2023-04-09T02:22:16.104Z,100.00
2023-04-09T02:24:42.687Z,100.00
2023-04-09T02:27:09.134Z,100.00
2023-04-09T02:29:35.635Z,100.00
2023-04-09T02:32:02.218Z,100.00
2023-04-09T02:34:28.680Z,100.00
2023-04-09T02:36:55.085Z,100.00
2023-04-09T02:39:21.513Z,100.00
2023-04-09T02:41:47.905Z,100.00
2023-04-09T02:44:14.374Z,100.00
2023-04-09T02:46:41.427Z,100.00
2023-04-09T02:49:08.138Z,100.00
2023-04-09T02:51:36.014Z,100.00
2023-04-09T02:54:03.546Z,100.00
2023-04-09T02:56:30.248Z,100.00
2023-04-09T02:58:56.656Z,100.00
2023-04-09T03:01:23.135Z,100.00
2023-04-09T03:03:49.899Z,100.00
2023-04-09T03:06:16.657Z,100.00
2023-04-09T03:08:43.080Z,100.00
2023-04-09T03:11:09.531Z,100.00
2023-04-09T03:13:35.974Z,100.00
2023-04-09T03:16:02.428Z,100.00
2023-04-09T03:18:28.839Z,100.00
2023-04-09T03:20:55.462Z,100.00
2023-04-09T03:23:21.886Z,100.00
2023-04-09T03:25:48.315Z,100.00
2023-04-09T03:28:14.828Z,100.00
2023-04-09T03:30:41.199Z,100.00
2023-04-09T03:33:07.693Z,100.00
2023-04-09T03:35:34.103Z,100.00
2023-04-09T03:38:00.515Z,100.00
2023-04-09T03:40:26.911Z,100.00
2023-04-09T03:42:53.292Z,100.00
2023-04-09T03:45:19.729Z,100.00
2023-04-09T03:47:46.173Z,100.00
2023-04-09T03:50:12.601Z,100.00
2023-04-09T03:52:38.994Z,100.00
2023-04-09T03:55:05.907Z,100.00
2023-04-09T03:57:32.434Z,100.00
2023-04-09T03:59:58.842Z,100.00
2023-04-09T04:02:27.080Z,100.00
2023-04-09T04:04:53.752Z,100.00
2023-04-09T04:07:20.152Z,100.00
2023-04-09T04:09:46.647Z,100.00
2023-04-09T04:12:13.071Z,100.00
2023-04-09T04:14:39.471Z,100.00
2023-04-09T04:17:05.982Z,100.00
2023-04-09T04:19:32.438Z,100.00
2023-04-09T04:21:58.878Z,100.00
2023-04-09T04:24:25.496Z,100.00
2023-04-09T04:26:51.896Z,100.00
2023-04-09T04:29:18.460Z,100.00
2023-04-09T04:31:44.937Z,100.00
2023-04-09T04:34:11.365Z,100.00
2023-04-09T04:36:37.911Z,100.00
2023-04-09T04:39:04.403Z,100.00
2023-04-09T04:41:30.903Z,100.00
2023-04-09T04:43:57.460Z,100.00
2023-04-09T04:46:23.868Z,100.00
2023-04-09T04:48:50.431Z,100.00
2023-04-09T04:51:17.102Z,100.00
2023-04-09T04:53:43.552Z,100.00
2023-04-09T04:56:16.043Z,100.00
2023-04-09T04:58:42.851Z,100.00
2023-04-09T05:01:09.292Z,100.00
2023-04-09T05:03:35.950Z,100.00
2023-04-09T05:06:02.932Z,100.00
2023-04-09T05:08:29.451Z,100.00
2023-04-09T05:10:56.300Z,100.00
2023-04-09T05:13:23.860Z,100.00
2023-04-09T05:15:50.803Z,100.00
2023-04-09T05:18:17.258Z,100.00
2023-04-09T05:20:43.702Z,100.00
2023-04-09T05:23:10.339Z,100.00
2023-04-09T05:25:36.797Z,100.00
2023-04-09T05:28:06.267Z,100.00
2023-04-09T05:30:32.725Z,100.00
2023-04-09T05:32:59.434Z,100.00
2023-04-09T05:35:25.880Z,100.00
2023-04-09T05:37:52.288Z,100.00
2023-04-09T05:40:18.746Z,100.00
2023-04-09T05:42:45.250Z,100.00
2023-04-09T05:45:11.700Z,100.00
2023-04-09T05:47:38.133Z,100.00
2023-04-09T05:50:05.656Z,100.00
2023-04-09T05:52:32.107Z,100.00
2023-04-09T05:54:58.668Z,100.00
2023-04-09T05:57:25.213Z,100.00
2023-04-09T05:59:51.612Z,100.00
2023-04-09T06:02:18.130Z,100.00
2023-04-09T06:04:44.615Z,100.00
2023-04-09T06:07:11.144Z,100.00
2023-04-09T06:09:38.188Z,100.00
2023-04-09T06:12:04.727Z,100.00
2023-04-09T06:14:33.073Z,100.00
2023-04-09T06:16:59.839Z,100.00
2023-04-09T06:19:26.315Z,100.00
2023-04-09T06:21:52.865Z,100.00
2023-04-09T06:24:19.453Z,100.00
2023-04-09T06:26:46.185Z,100.00
2023-04-09T06:29:12.668Z,100.00
2023-04-09T06:31:39.429Z,100.00
2023-04-09T06:34:05.989Z,100.00
2023-04-09T06:36:33.292Z,100.00
2023-04-09T06:38:59.710Z,100.00
2023-04-09T06:41:29.245Z,100.00
2023-04-09T06:43:55.663Z,100.00
2023-04-09T06:46:22.268Z,100.00
2023-04-09T06:48:48.812Z,100.00
2023-04-09T06:51:15.476Z,100.00
2023-04-09T06:53:42.463Z,100.00
2023-04-09T06:56:08.972Z,100.00
2023-04-09T06:58:35.499Z,100.00
2023-04-09T07:01:02.053Z,100.00
2023-04-09T07:03:29.538Z,100.00
2023-04-09T07:05:57.530Z,100.00
2023-04-09T07:08:24.017Z,100.00
2023-04-09T07:10:50.424Z,100.00
2023-04-09T07:13:17.314Z,100.00
2023-04-09T07:15:43.878Z,100.00
2023-04-09T07:18:10.642Z,100.00
2023-04-09T07:20:37.100Z,100.00
2023-04-09T07:23:03.545Z,100.00
2023-04-09T07:25:31.103Z,100.00
2023-04-09T07:27:57.534Z,100.00
2023-04-09T07:30:24.053Z,100.00
2023-04-09T07:32:50.956Z,100.00
2023-04-09T07:35:18.864Z,100.00
2023-04-09T07:37:45.397Z,100.00
2023-04-09T07:40:12.111Z,100.00
2023-04-09T07:42:39.396Z,100.00
2023-04-09T07:45:06.924Z,100.00
2023-04-09T07:47:33.494Z,100.00
2023-04-09T07:49:59.956Z,100.00
2023-04-09T07:52:26.348Z,100.00
2023-04-09T07:54:52.813Z,100.00
2023-04-09T07:57:19.270Z,100.00
2023-04-09T07:59:46.653Z,100.00
2023-04-09T08:02:15.376Z,100.00
2023-04-09T08:04:42.375Z,100.00
2023-04-09T08:07:09.192Z,100.00
2023-04-09T08:09:35.808Z,100.00
2023-04-09T08:12:02.326Z,100.00
2023-04-09T08:14:28.981Z,100.00
2023-04-09T08:16:55.570Z,100.00
2023-04-09T08:19:22.108Z,100.00
2023-04-09T08:21:49.522Z,100.00
2023-04-09T08:24:16.062Z,100.00
2023-04-09T08:26:42.932Z,100.00
2023-04-09T08:29:12.268Z,100.00
2023-04-09T08:31:39.244Z,100.00
2023-04-09T08:34:06.491Z,100.00
2023-04-09T08:36:34.604Z,100.00
2023-04-09T08:39:01.758Z,100.00
2023-04-09T08:41:29.401Z,100.00
2023-04-09T08:43:58.796Z,100.00
2023-04-09T08:46:29.005Z,100.00
2023-04-09T08:48:56.099Z,100.00
2023-04-09T08:51:24.214Z,100.00
2023-04-09T08:53:59.640Z,100.00
2023-04-09T08:56:27.785Z,100.00
2023-04-09T08:58:56.162Z,100.00
2023-04-09T09:01:28.103Z,100.00
2023-04-09T09:03:56.771Z,100.00
2023-04-09T09:06:27.014Z,100.00
2023-04-09T09:09:22.575Z,100.00
2023-04-09T09:11:52.311Z,100.00
2023-04-09T09:14:19.774Z,100.00
2023-04-09T09:16:55.416Z,100.00
2023-04-09T09:19:24.913Z,100.00
2023-04-09T09:21:58.410Z,99.59
2023-04-09T09:24:24.855Z,100.00
2023-04-09T09:26:54.436Z,100.00
2023-04-09T09:29:21.251Z,98.01
2023-04-09T09:31:49.634Z,91.65
2023-04-09T09:34:17.400Z,94.64
2023-04-09T09:36:44.654Z,95.76
2023-04-09T09:39:13.008Z,94.71
2023-04-09T09:41:41.146Z,94.75
2023-04-09T09:44:09.035Z,95.40
2023-04-09T09:46:42.667Z,90.09
2023-04-09T09:49:09.549Z,96.11
2023-04-09T09:51:37.612Z,94.05
2023-04-09T09:54:06.959Z,93.32
2023-04-09T09:56:39.307Z,94.19
2023-04-09T09:59:23.232Z,91.43
2023-04-09T10:02:04.322Z,89.80
2023-04-09T10:04:33.514Z,84.13
2023-04-09T10:07:04.361Z,88.15
2023-04-09T10:09:31.307Z,86.82
2023-04-09T10:12:00.168Z,87.85
2023-04-09T10:14:28.855Z,88.03
2023-04-09T10:16:55.455Z,84.57
2023-04-09T10:19:22.288Z,86.95
2023-04-09T10:22:13.677Z,86.03
2023-04-09T10:24:40.856Z,85.25
2023-04-09T10:27:16.450Z,88.92
2023-04-09T10:29:49.080Z,86.21
2023-04-09T10:32:26.414Z,83.84
2023-04-09T10:34:57.112Z,84.59
2023-04-09T10:37:25.601Z,83.12
2023-04-09T10:39:52.895Z,85.56
2023-04-09T10:42:32.609Z,82.18
2023-04-09T10:45:39.515Z,76.59
2023-04-09T10:48:06.089Z,82.70
2023-04-09T10:50:32.989Z,83.76
2023-04-09T10:53:02.586Z,79.81
2023-04-09T10:55:42.357Z,81.61
2023-04-09T10:58:12.737Z,83.57
2023-04-09T11:00:42.755Z,78.59
2023-04-09T11:03:09.404Z,81.36
2023-04-09T11:05:40.513Z,83.77
2023-04-09T11:08:09.665Z,82.03
2023-04-09T11:10:37.559Z,82.46
2023-04-09T11:13:04.752Z,81.81
2023-04-09T11:15:32.678Z,82.95
2023-04-09T11:17:59.223Z,82.70
2023-04-09T11:20:29.598Z,81.42
2023-04-09T11:22:56.399Z,79.88
2023-04-09T11:25:26.872Z,80.63
2023-04-09T11:27:54.440Z,81.68
2023-04-09T11:30:21.655Z,82.06
2023-04-09T11:32:49.700Z,81.67
2023-04-09T11:35:18.532Z,79.57
2023-04-09T11:37:50.243Z,81.16
2023-04-09T11:40:21.936Z,78.76
2023-04-09T11:42:51.134Z,78.14
2023-04-09T11:45:21.022Z,79.67
2023-04-09T11:47:49.036Z,79.47
2023-04-09T11:50:16.631Z,78.31
2023-04-09T11:52:45.136Z,79.51
2023-04-09T11:55:12.530Z,80.06
2023-04-09T11:57:48.486Z,75.49
2023-04-09T12:00:17.526Z,74.60
2023-04-09T12:02:49.758Z,69.79
2023-04-09T12:05:28.877Z,72.09
2023-04-09T12:08:01.307Z,72.75
2023-04-09T12:10:32.875Z,73.99
2023-04-09T12:13:07.602Z,74.06
2023-04-09T12:15:37.129Z,72.88
2023-04-09T12:18:04.545Z,71.95
2023-04-09T12:20:37.508Z,71.92
2023-04-09T12:23:06.211Z,71.46
2023-04-09T12:25:35.772Z,73.27
2023-04-09T12:28:03.912Z,71.79
2023-04-09T12:30:30.438Z,71.08
2023-04-09T12:32:57.307Z,74.17
2023-04-09T12:35:24.284Z,72.33
2023-04-09T12:37:51.807Z,70.14
2023-04-09T12:40:20.385Z,69.86
2023-04-09T12:42:47.534Z,68.91
2023-04-09T12:45:16.862Z,70.68
2023-04-09T12:47:44.390Z,67.43
2023-04-09T12:50:12.527Z,68.05
2023-04-09T12:52:39.921Z,68.56
2023-04-09T12:55:07.619Z,68.05
2023-04-09T12:57:34.418Z,65.26
2023-04-09T13:00:01.296Z,67.78
2023-04-09T13:02:28.127Z,67.29
2023-04-09T13:04:54.936Z,67.71
2023-04-09T13:07:22.946Z,68.51
2023-04-09T13:09:52.556Z,69.05
2023-04-09T13:12:21.690Z,69.58
2023-04-09T13:14:49.130Z,70.21
2023-04-09T13:17:19.053Z,68.51
2023-04-09T13:19:46.239Z,69.85
2023-04-09T13:22:13.151Z,68.62
2023-04-09T13:24:39.810Z,67.19
2023-04-09T13:27:09.605Z,68.11
2023-04-09T13:29:36.853Z,66.65
2023-04-09T13:32:07.102Z,67.33
2023-04-09T13:34:35.075Z,69.21
2023-04-09T13:37:04.399Z,66.51
2023-04-09T13:39:31.368Z,64.22
2023-04-09T13:41:57.923Z,64.79
2023-04-09T13:44:25.224Z,63.22
2023-04-09T13:46:51.707Z,63.97
2023-04-09T13:49:19.351Z,62.29
2023-04-09T13:51:46.150Z,63.31
2023-04-09T13:54:13.236Z,62.84
2023-04-09T13:56:39.775Z,63.03
2023-04-09T13:59:06.505Z,63.07
2023-04-09T14:01:33.682Z,64.08
2023-04-09T14:04:00.325Z,64.49
2023-04-09T14:06:27.154Z,63.42
2023-04-09T14:08:53.997Z,61.48
2023-04-09T14:11:20.858Z,62.38
2023-04-09T14:13:48.440Z,61.61
2023-04-09T14:16:15.081Z,58.24
2023-04-09T14:18:41.675Z,59.94
2023-04-09T14:21:10.248Z,60.06
2023-04-09T14:23:37.485Z,60.43
2023-04-09T14:26:05.554Z,62.34
2023-04-09T14:28:32.134Z,60.71
2023-04-09T14:30:59.527Z,61.50
2023-04-09T14:33:26.700Z,60.77
2023-04-09T14:35:53.322Z,60.16
2023-04-09T14:38:19.848Z,59.94
2023-04-09T14:40:46.381Z,60.31
2023-04-09T14:43:12.869Z,58.80
2023-04-09T14:45:39.416Z,59.61
2023-04-09T14:48:05.944Z,58.97
2023-04-09T14:50:33.875Z,60.49
2023-04-09T14:53:01.470Z,60.57
2023-04-09T14:55:28.300Z,59.52
2023-04-09T14:57:55.211Z,58.97
2023-04-09T15:00:21.906Z,61.18
2023-04-09T15:02:48.789Z,62.00
2023-04-09T15:05:16.049Z,61.42
2023-04-09T15:07:43.650Z,62.67
2023-04-09T15:10:10.832Z,61.32
2023-04-09T15:12:37.249Z,62.67
2023-04-09T15:15:08.519Z,62.32
2023-04-09T15:17:35.376Z,61.68
2023-04-09T15:20:02.024Z,60.26
2023-04-09T15:22:28.457Z,60.74
2023-04-09T15:24:54.896Z,59.58
2023-04-09T15:27:21.388Z,58.99
2023-04-09T15:29:47.782Z,58.65
2023-04-09T15:32:14.220Z,59.56
2023-04-09T15:34:40.857Z,60.12
2023-04-09T15:37:07.440Z,59.70
2023-04-09T15:39:35.008Z,60.57
2023-04-09T15:42:01.958Z,59.94
2023-04-09T15:44:28.918Z,60.32
2023-04-09T15:46:56.012Z,60.25
2023-04-09T15:49:23.185Z,60.51
2023-04-09T15:51:49.870Z,59.32
2023-04-09T15:54:16.500Z,59.69
2023-04-09T15:56:42.966Z,59.06
2023-04-09T15:59:09.793Z,59.54
2023-04-09T16:01:37.064Z,59.70
2023-04-09T16:04:04.973Z,60.01
2023-04-09T16:06:31.900Z,59.46
2023-04-09T16:08:58.517Z,60.21
2023-04-09T16:11:25.014Z,60.01
2023-04-09T16:13:52.366Z,59.17
2023-04-09T16:16:19.261Z,60.63
2023-04-09T16:18:45.962Z,61.64
2023-04-09T16:21:12.574Z,62.70
2023-04-09T16:23:39.741Z,62.95
2023-04-09T16:26:06.941Z,62.54
2023-04-09T16:28:33.772Z,62.89
2023-04-09T16:31:00.373Z,61.79
2023-04-09T16:33:27.059Z,62.23
2023-04-09T16:35:53.597Z,62.82
2023-04-09T16:38:20.147Z,62.73
2023-04-09T16:40:46.903Z,63.22
2023-04-09T16:43:13.478Z,63.78
2023-04-09T16:45:40.136Z,63.46
2023-04-09T16:48:11.901Z,61.91
2023-04-09T16:50:39.852Z,62.29
2023-04-09T16:53:06.564Z,62.22
2023-04-09T16:55:37.124Z,63.59
2023-04-09T16:58:03.576Z,63.37
2023-04-09T17:00:30.043Z,63.91
2023-04-09T17:02:57.582Z,64.70
2023-04-09T17:05:24.471Z,65.62
2023-04-09T17:07:52.334Z,66.28
2023-04-09T17:10:19.302Z,66.49
2023-04-09T17:12:45.876Z,66.89
2023-04-09T17:15:12.670Z,67.58
2023-04-09T17:17:39.159Z,67.80
2023-04-09T17:20:06.531Z,68.88
2023-04-09T17:22:34.974Z,69.29
2023-04-09T17:25:01.824Z,69.47
2023-04-09T17:27:28.266Z,69.63
2023-04-09T17:29:54.857Z,70.33
2023-04-09T17:32:21.289Z,70.76
2023-04-09T17:34:51.305Z,71.05
2023-04-09T17:37:18.571Z,71.49
2023-04-09T17:39:44.977Z,71.86
2023-04-09T17:42:14.557Z,72.38
2023-04-09T17:44:43.625Z,72.54
2023-04-09T17:47:11.545Z,73.06
2023-04-09T17:49:37.977Z,73.38
2023-04-09T17:52:04.373Z,74.01
2023-04-09T17:54:38.004Z,73.84
2023-04-09T17:57:07.139Z,74.42
2023-04-09T17:59:34.664Z,74.42
2023-04-09T18:02:01.291Z,74.79
2023-04-09T18:04:28.022Z,74.85
2023-04-09T18:06:56.003Z,75.22
2023-04-09T18:09:22.464Z,75.02
2023-04-09T18:11:49.155Z,75.52
2023-04-09T18:14:15.763Z,76.01
2023-04-09T18:16:42.222Z,76.12
2023-04-09T18:19:08.637Z,76.97
2023-04-09T18:21:38.142Z,77.39
2023-04-09T18:24:04.822Z,78.05
2023-04-09T18:26:33.319Z,77.34
2023-04-09T18:29:01.164Z,77.87
2023-04-09T18:31:28.182Z,78.15
2023-04-09T18:33:54.722Z,78.16
2023-04-09T18:36:21.361Z,79.28
2023-04-09T18:38:47.782Z,77.90
2023-04-09T18:41:22.355Z,77.79
2023-04-09T18:43:48.775Z,78.07
2023-04-09T18:46:15.314Z,78.08
2023-04-09T18:48:43.325Z,78.20
2023-04-09T18:51:10.570Z,78.92
2023-04-09T18:53:37.137Z,78.47
2023-04-09T18:56:03.834Z,79.20
2023-04-09T18:58:30.233Z,80.83
2023-04-09T19:00:56.856Z,81.62
2023-04-09T19:03:23.861Z,82.55
2023-04-09T19:05:51.641Z,84.05
2023-04-09T19:08:18.047Z,83.28
2023-04-09T19:10:47.340Z,82.53
2023-04-09T19:13:13.731Z,82.46
2023-04-09T19:15:40.130Z,81.95
2023-04-09T19:18:06.680Z,82.36
2023-04-09T19:20:33.187Z,81.17
2023-04-09T19:22:59.799Z,81.22
2023-04-09T19:25:26.273Z,80.74
2023-04-09T19:27:54.193Z,80.48
2023-04-09T19:30:21.179Z,80.09
2023-04-09T19:32:47.611Z,80.01
2023-04-09T19:35:14.077Z,79.15
2023-04-09T19:37:40.681Z,78.81
2023-04-09T19:40:07.874Z,78.08
2023-04-09T19:42:34.587Z,76.80
2023-04-09T19:45:01.065Z,76.89
2023-04-09T19:47:27.959Z,76.81
2023-04-09T19:49:54.679Z,77.37
2023-04-09T19:52:21.434Z,77.49
2023-04-09T19:54:48.018Z,77.79
2023-04-09T19:57:15.152Z,78.06
2023-04-09T19:59:41.590Z,78.25
2023-04-09T20:02:08.152Z,78.50
2023-04-09T20:04:34.661Z,78.03
2023-04-09T20:07:01.236Z,78.69
2023-04-09T20:09:29.024Z,78.57
2023-04-09T20:11:55.533Z,79.65
2023-04-09T20:14:22.004Z,82.32
2023-04-09T20:16:48.504Z,83.85
2023-04-09T20:19:15.015Z,87.45
2023-04-09T20:21:43.479Z,88.40
2023-04-09T20:24:10.226Z,87.30
2023-04-09T20:26:36.884Z,88.55
2023-04-09T20:29:03.394Z,88.95
2023-04-09T20:31:31.707Z,89.27
2023-04-09T20:33:58.242Z,89.60
2023-04-09T20:36:24.668Z,90.18
2023-04-09T20:38:51.241Z,91.01
2023-04-09T20:41:18.050Z,91.82
2023-04-09T20:43:44.480Z,93.97
2023-04-09T20:46:11.923Z,93.77
2023-04-09T20:48:38.462Z,95.31
2023-04-09T20:51:10.995Z,96.46
2023-04-09T20:53:38.427Z,96.21
2023-04-09T20:56:06.266Z,96.53
2023-04-09T20:58:33.614Z,97.50
2023-04-09T21:01:09.251Z,98.49
2023-04-09T21:03:40.130Z,99.46
2023-04-09T21:06:08.193Z,99.57
2023-04-09T21:08:34.947Z,98.24
2023-04-09T21:11:02.236Z,99.81
2023-04-09T21:13:53.230Z,100.00
2023-04-09T21:16:21.479Z,100.00
2023-04-09T21:18:49.390Z,100.00
2023-04-09T21:21:16.792Z,100.00
2023-04-09T21:23:43.628Z,100.00
2023-04-09T21:26:11.502Z,100.00
2023-04-09T21:28:39.275Z,100.00
2023-04-09T21:31:06.127Z,100.00
2023-04-09T21:33:32.965Z,100.00
2023-04-09T21:35:59.449Z,100.00
2023-04-09T21:38:26.208Z,100.00
2023-04-09T21:40:52.780Z,100.00
2023-04-09T21:43:19.495Z,100.00
2023-04-09T21:45:46.344Z,100.00
2023-04-09T21:48:13.727Z,100.00
2023-04-09T21:50:40.240Z,100.00
2023-04-09T21:53:07.051Z,100.00
2023-04-09T21:55:36.425Z,100.00
2023-04-09T21:58:03.807Z,100.00
2023-04-09T22:00:30.863Z,100.00
2023-04-09T22:03:01.981Z,100.00
2023-04-09T22:05:28.745Z,100.00
2023-04-09T22:07:56.013Z,100.00
2023-04-09T22:10:22.658Z,100.00
2023-04-09T22:12:50.091Z,100.00
2023-04-09T22:15:16.987Z,100.00
2023-04-09T22:17:43.896Z,100.00
2023-04-09T22:20:10.646Z,100.00
2023-04-09T22:22:37.710Z,100.00
2023-04-09T22:25:06.790Z,100.00
2023-04-09T22:27:33.939Z,100.00
2023-04-09T22:30:00.366Z,100.00
2023-04-09T22:32:26.823Z,100.00
2023-04-09T22:34:53.525Z,100.00
2023-04-09T22:37:20.092Z,100.00
2023-04-09T22:39:46.502Z,100.00
2023-04-09T22:42:12.874Z,100.00
2023-04-09T22:44:39.575Z,100.00
2023-04-09T22:47:06.097Z,100.00
2023-04-09T22:49:32.501Z,100.00
2023-04-09T22:51:58.877Z,100.00
2023-04-09T22:54:25.396Z,100.00
2023-04-09T22:56:51.822Z,100.00
2023-04-09T22:59:19.962Z,100.00
2023-04-09T23:01:47.863Z,100.00
2023-04-09T23:04:15.055Z,100.00
2023-04-09T23:06:41.631Z,100.00
2023-04-09T23:09:08.050Z,100.00
2023-04-09T23:11:36.371Z,100.00
2023-04-09T23:14:02.837Z,100.00
2023-04-09T23:16:29.379Z,100.00
2023-04-09T23:18:55.931Z,100.00
2023-04-09T23:21:22.606Z,100.00
2023-04-09T23:23:49.012Z,100.00
2023-04-09T23:26:15.477Z,100.00
2023-04-09T23:28:41.857Z,100.00
2023-04-09T23:31:08.462Z,100.00
2023-04-09T23:33:34.947Z,100.00
2023-04-09T23:36:01.377Z,100.00
2023-04-09T23:38:28.157Z,100.00
2023-04-09T23:40:54.625Z,100.00
2023-04-09T23:43:20.998Z,100.00
2023-04-09T23:45:49.727Z,100.00
2023-04-09T23:48:16.600Z,100.00
2023-04-09T23:50:42.996Z,100.00
2023-04-09T23:53:09.418Z,100.00
2023-04-09T23:55:40.991Z,100.00
2023-04-09T23:58:08.340Z,100.00
